Alverton, Pennsylvania
Current Conditions -  °F | °C
As of 2:50 PM on Monday 26 Jan 2015 (Local Time) from KLBE Reporting Station
Light Snow Light Snow  
Wind Chill: 27°   Ceiling: 1200
Heat Index: 32°   Visibility: 3mi
Dew Point: 28°   Wind: 5mph
Humidity: 87%   Direction: 40°NE
Pressure: 29.68"   Gusts: NA
Location:  40.14°N, 79.59°W
Report Text: KLBE 261950Z 04004KT 3SM -SN BKN012 OVC030 00/M02 A2968
Loading
Personal Weather Stations






























Interactive Weather Map New forecast layout! Learn more

10-Day Weather Forecast

Advertisements
Track Severe Weather on mobile